sensor_id;sensor_type;location;lat;lon;timestamp;pressure;altitude;pressure_sealevel;temperature;humidity
70304;BME280;57712;48.752;11.348;2023-04-28T00:00:31;97519.81;;;8.26;100.00
70304;BME280;57712;48.752;11.348;2023-04-28T00:02:58;97518.66;;;8.27;100.00
70304;BME280;57712;48.752;11.348;2023-04-28T00:05:24;97509.31;;;8.24;100.00
70304;BME280;57712;48.752;11.348;2023-04-28T00:07:52;97512.06;;;8.21;100.00
70304;BME280;57712;48.752;11.348;2023-04-28T00:10:18;97506.59;;;8.21;100.00
70304;BME280;57712;48.752;11.348;2023-04-28T00:12:45;97518.28;;;8.25;100.00
70304;BME280;57712;48.752;11.348;2023-04-28T00:15:12;97511.31;;;8.17;100.00
70304;BME280;57712;48.752;11.348;2023-04-28T00:17:39;97517.50;;;8.21;100.00
70304;BME280;57712;48.752;11.348;2023-04-28T00:20:06;97516.34;;;8.22;100.00
70304;BME280;57712;48.752;11.348;2023-04-28T00:22:33;97508.19;;;8.18;100.00
70304;BME280;57712;48.752;11.348;2023-04-28T00:24:59;97509.31;;;8.21;100.00
70304;BME280;57712;48.752;11.348;2023-04-28T00:27:26;97501.97;;;8.18;100.00
70304;BME280;57712;48.752;11.348;2023-04-28T00:29:52;97497.28;;;8.18;100.00
70304;BME280;57712;48.752;11.348;2023-04-28T00:32:19;97500.78;;;8.19;100.00
70304;BME280;57712;48.752;11.348;2023-04-28T00:34:46;97495.69;;;8.24;100.00
70304;BME280;57712;48.752;11.348;2023-04-28T00:37:13;97489.81;;;8.26;100.00
70304;BME280;57712;48.752;11.348;2023-04-28T00:39:39;97488.22;;;8.28;100.00
70304;BME280;57712;48.752;11.348;2023-04-28T00:42:07;97485.84;;;8.30;100.00
70304;BME280;57712;48.752;11.348;2023-04-28T00:44:33;97487.81;;;8.30;100.00
70304;BME280;57712;48.752;11.348;2023-04-28T00:47:00;97490.59;;;8.23;100.00
70304;BME280;57712;48.752;11.348;2023-04-28T00:49:27;97486.63;;;8.31;100.00
70304;BME280;57712;48.752;11.348;2023-04-28T00:51:53;97489.00;;;8.29;100.00
70304;BME280;57712;48.752;11.348;2023-04-28T00:54:20;97491.31;;;8.34;100.00
70304;BME280;57712;48.752;11.348;2023-04-28T00:56:47;97494.03;;;8.34;100.00
70304;BME280;57712;48.752;11.348;2023-04-28T00:59:14;97489.72;;;8.33;100.00
70304;BME280;57712;48.752;11.348;2023-04-28T01:01:40;97485.50;;;8.28;100.00
70304;BME280;57712;48.752;11.348;2023-04-28T01:04:07;97472.25;;;8.27;100.00
70304;BME280;57712;48.752;11.348;2023-04-28T01:06:35;97463.63;;;8.32;100.00
70304;BME280;57712;48.752;11.348;2023-04-28T01:09:02;97462.06;;;8.31;100.00
70304;BME280;57712;48.752;11.348;2023-04-28T01:11:31;97460.13;;;8.35;100.00
70304;BME280;57712;48.752;11.348;2023-04-28T01:13:57;97464.78;;;8.38;100.00
70304;BME280;57712;48.752;11.348;2023-04-28T01:16:25;97454.25;;;8.36;100.00
70304;BME280;57712;48.752;11.348;2023-04-28T01:18:53;97451.94;;;8.35;100.00
70304;BME280;57712;48.752;11.348;2023-04-28T01:21:26;97448.03;;;8.36;100.00
70304;BME280;57712;48.752;11.348;2023-04-28T01:23:56;97452.34;;;8.30;100.00
70304;BME280;57712;48.752;11.348;2023-04-28T01:26:23;97453.50;;;8.29;100.00
70304;BME280;57712;48.752;11.348;2023-04-28T01:28:51;97444.91;;;8.30;100.00
70304;BME280;57712;48.752;11.348;2023-04-28T01:31:17;97452.00;;;8.24;100.00
70304;BME280;57712;48.752;11.348;2023-04-28T01:33:44;97448.78;;;8.33;100.00
70304;BME280;57712;48.752;11.348;2023-04-28T01:36:11;97453.50;;;8.36;100.00
70304;BME280;57712;48.752;11.348;2023-04-28T01:38:38;97462.81;;;8.38;100.00
70304;BME280;57712;48.752;11.348;2023-04-28T01:41:04;97451.13;;;8.38;100.00
70304;BME280;57712;48.752;11.348;2023-04-28T01:43:31;97456.13;;;8.43;100.00
70304;BME280;57712;48.752;11.348;2023-04-28T01:45:58;97451.13;;;8.38;100.00
70304;BME280;57712;48.752;11.348;2023-04-28T01:48:24;97448.75;;;8.40;100.00
70304;BME280;57712;48.752;11.348;2023-04-28T01:50:51;97448.75;;;8.40;100.00
70304;BME280;57712;48.752;11.348;2023-04-28T01:53:18;97437.03;;;8.43;100.00
70304;BME280;57712;48.752;11.348;2023-04-28T01:55:46;97434.69;;;8.45;100.00
70304;BME280;57712;48.752;11.348;2023-04-28T01:58:13;97437.41;;;8.45;100.00
70304;BME280;57712;48.752;11.348;2023-04-28T02:00:39;97435.81;;;8.48;100.00
70304;BME280;57712;48.752;11.348;2023-04-28T02:03:06;97442.47;;;8.43;100.00
70304;BME280;57712;48.752;11.348;2023-04-28T02:05:33;97437.84;;;8.40;100.00
70304;BME280;57712;48.752;11.348;2023-04-28T02:08:00;97433.91;;;8.45;100.00
70304;BME280;57712;48.752;11.348;2023-04-28T02:10:26;97434.69;;;8.45;100.00
70304;BME280;57712;48.752;11.348;2023-04-28T02:12:53;97444.78;;;8.48;100.00
70304;BME280;57712;48.752;11.348;2023-04-28T02:15:20;97429.94;;;8.49;100.00
70304;BME280;57712;48.752;11.348;2023-04-28T02:17:47;97426.84;;;8.47;100.00
70304;BME280;57712;48.752;11.348;2023-04-28T02:20:13;97423.34;;;8.47;100.00
70304;BME280;57712;48.752;11.348;2023-04-28T02:22:40;97439.25;;;8.55;100.00
70304;BME280;57712;48.752;11.348;2023-04-28T02:25:07;97445.44;;;8.59;100.00
70304;BME280;57712;48.752;11.348;2023-04-28T02:27:35;97440.69;;;8.63;100.00
70304;BME280;57712;48.752;11.348;2023-04-28T02:30:05;97439.50;;;8.68;100.00
70304;BME280;57712;48.752;11.348;2023-04-28T02:32:32;97445.31;;;8.70;100.00
70304;BME280;57712;48.752;11.348;2023-04-28T02:35:00;97443.78;;;8.69;100.00
70304;BME280;57712;48.752;11.348;2023-04-28T02:37:27;97434.06;;;8.64;100.00
70304;BME280;57712;48.752;11.348;2023-04-28T02:39:54;97438.31;;;8.69;100.00
70304;BME280;57712;48.752;11.348;2023-04-28T02:42:20;97445.28;;;8.74;100.00
70304;BME280;57712;48.752;11.348;2023-04-28T02:44:47;97437.47;;;8.76;100.00
70304;BME280;57712;48.752;11.348;2023-04-28T02:47:14;97437.53;;;8.68;100.00
70304;BME280;57712;48.752;11.348;2023-04-28T02:49:41;97425.75;;;8.75;100.00
70304;BME280;57712;48.752;11.348;2023-04-28T02:52:07;97419.50;;;8.75;100.00
70304;BME280;57712;48.752;11.348;2023-04-28T02:54:34;97423.72;;;8.83;100.00
70304;BME280;57712;48.752;11.348;2023-04-28T02:57:02;97423.69;;;8.86;100.00
70304;BME280;57712;48.752;11.348;2023-04-28T02:59:30;97416.22;;;8.90;100.00
70304;BME280;57712;48.752;11.348;2023-04-28T03:01:56;97419.66;;;8.94;100.00
70304;BME280;57712;48.752;11.348;2023-04-28T03:04:23;97409.88;;;8.97;100.00
70304;BME280;57712;48.752;11.348;2023-04-28T03:06:50;97409.06;;;9.00;100.00
70304;BME280;57712;48.752;11.348;2023-04-28T03:09:17;97419.94;;;9.04;100.00
70304;BME280;57712;48.752;11.348;2023-04-28T03:11:43;97404.50;;;8.90;100.00
70304;BME280;57712;48.752;11.348;2023-04-28T03:14:10;97398.72;;;8.84;100.00
70304;BME280;57712;48.752;11.348;2023-04-28T03:16:37;97380.97;;;9.00;100.00
70304;BME280;57712;48.752;11.348;2023-04-28T03:19:04;97376.19;;;9.07;100.00
70304;BME280;57712;48.752;11.348;2023-04-28T03:21:30;97369.56;;;8.78;100.00
70304;BME280;57712;48.752;11.348;2023-04-28T03:23:57;97366.81;;;8.78;100.00
70304;BME280;57712;48.752;11.348;2023-04-28T03:26:24;97353.81;;;8.85;100.00
70304;BME280;57712;48.752;11.348;2023-04-28T03:28:50;97369.34;;;8.92;100.00
70304;BME280;57712;48.752;11.348;2023-04-28T03:31:17;97356.41;;;8.96;100.00
70304;BME280;57712;48.752;11.348;2023-04-28T03:33:44;97378.75;;;8.91;100.00
70304;BME280;57712;48.752;11.348;2023-04-28T03:36:13;97355.34;;;8.90;100.00
70304;BME280;57712;48.752;11.348;2023-04-28T03:38:40;97349.97;;;8.83;100.00
70304;BME280;57712;48.752;11.348;2023-04-28T03:41:07;97342.97;;;8.82;100.00
70304;BME280;57712;48.752;11.348;2023-04-28T03:43:34;97349.88;;;8.90;100.00
70304;BME280;57712;48.752;11.348;2023-04-28T03:46:05;97355.41;;;8.86;100.00
70304;BME280;57712;48.752;11.348;2023-04-28T03:48:32;97349.97;;;8.83;100.00
70304;BME280;57712;48.752;11.348;2023-04-28T03:50:59;97350.72;;;8.87;100.00
70304;BME280;57712;48.752;11.348;2023-04-28T03:53:26;97353.78;;;8.89;100.00
70304;BME280;57712;48.752;11.348;2023-04-28T03:55:53;97360.72;;;8.97;100.00
70304;BME280;57712;48.752;11.348;2023-04-28T03:58:20;97366.97;;;8.94;100.00
70304;BME280;57712;48.752;11.348;2023-04-28T04:00:51;97363.25;;;8.81;100.00
70304;BME280;57712;48.752;11.348;2023-04-28T04:03:19;97356.53;;;8.89;100.00
70304;BME280;57712;48.752;11.348;2023-04-28T04:05:48;97359.56;;;8.94;100.00
70304;BME280;57712;48.752;11.348;2023-04-28T04:08:16;97355.13;;;9.04;100.00
70304;BME280;57712;48.752;11.348;2023-04-28T04:10:43;97343.59;;;8.93;100.00
70304;BME280;57712;48.752;11.348;2023-04-28T04:13:10;97349.88;;;8.90;100.00
70304;BME280;57712;48.752;11.348;2023-04-28T04:15:36;97343.56;;;8.96;100.00
70304;BME280;57712;48.752;11.348;2023-04-28T04:18:03;97363.38;;;9.01;100.00
70304;BME280;57712;48.752;11.348;2023-04-28T04:20:30;97357.84;;;9.08;100.00
70304;BME280;57712;48.752;11.348;2023-04-28T04:22:57;97355.03;;;9.11;100.00
70304;BME280;57712;48.752;11.348;2023-04-28T04:25:23;97352.59;;;9.17;100.00
70304;BME280;57712;48.752;11.348;2023-04-28T04:27:51;97348.81;;;9.11;100.00
70304;BME280;57712;48.752;11.348;2023-04-28T04:30:18;97342.47;;;9.17;100.00
70304;BME280;57712;48.752;11.348;2023-04-28T04:32:44;97340.91;;;9.16;100.00
70304;BME280;57712;48.752;11.348;2023-04-28T04:35:11;97349.34;;;9.25;100.00
70304;BME280;57712;48.752;11.348;2023-04-28T04:37:38;97353.28;;;9.24;100.00
70304;BME280;57712;48.752;11.348;2023-04-28T04:40:05;97359.09;;;9.26;100.00
70304;BME280;57712;48.752;11.348;2023-04-28T04:42:33;97360.19;;;9.33;100.00
70304;BME280;57712;48.752;11.348;2023-04-28T04:44:59;97364.81;;;9.36;100.00
70304;BME280;57712;48.752;11.348;2023-04-28T04:47:29;97358.22;;;9.33;100.00
70304;BME280;57712;48.752;11.348;2023-04-28T04:49:56;97351.72;;;9.23;100.00
70304;BME280;57712;48.752;11.348;2023-04-28T04:52:23;97356.97;;;9.38;100.00
70304;BME280;57712;48.752;11.348;2023-04-28T04:54:49;97344.75;;;9.46;100.00
70304;BME280;57712;48.752;11.348;2023-04-28T04:57:19;97340.69;;;9.31;100.00
70304;BME280;57712;48.752;11.348;2023-04-28T04:59:46;97338.22;;;9.40;100.00
70304;BME280;57712;48.752;11.348;2023-04-28T05:02:13;97326.69;;;9.29;100.00
70304;BME280;57712;48.752;11.348;2023-04-28T05:04:39;97333.56;;;9.37;100.00
70304;BME280;57712;48.752;11.348;2023-04-28T05:07:06;97331.44;;;9.48;100.00
70304;BME280;57712;48.752;11.348;2023-04-28T05:09:33;97331.31;;;9.32;100.00
70304;BME280;57712;48.752;11.348;2023-04-28T05:12:00;97331.38;;;9.28;100.00
70304;BME280;57712;48.752;11.348;2023-04-28T05:14:26;97341.41;;;9.35;100.00
70304;BME280;57712;48.752;11.348;2023-04-28T05:16:53;97342.25;;;9.32;100.00
70304;BME280;57712;48.752;11.348;2023-04-28T05:19:20;97338.44;;;9.25;100.00
70304;BME280;57712;48.752;11.348;2023-04-28T05:21:47;97338.06;;;9.23;100.00
70304;BME280;57712;48.752;11.348;2023-04-28T05:24:14;97319.00;;;9.20;100.00
70304;BME280;57712;48.752;11.348;2023-04-28T05:26:41;97331.91;;;9.19;100.00
70304;BME280;57712;48.752;11.348;2023-04-28T05:29:08;97319.03;;;9.16;100.00
70304;BME280;57712;48.752;11.348;2023-04-28T05:31:34;97331.78;;;9.26;100.00
70304;BME280;57712;48.752;11.348;2023-04-28T05:34:01;97339.88;;;9.34;100.00
70304;BME280;57712;48.752;11.348;2023-04-28T05:36:28;97333.69;;;9.30;100.00
70304;BME280;57712;48.752;11.348;2023-04-28T05:38:55;97335.00;;;9.45;100.00
70304;BME280;57712;48.752;11.348;2023-04-28T05:41:21;97336.53;;;9.46;100.00
70304;BME280;57712;48.752;11.348;2023-04-28T05:43:48;97336.53;;;9.46;100.00
70304;BME280;57712;48.752;11.348;2023-04-28T05:46:17;97336.78;;;9.55;100.00
70304;BME280;57712;48.752;11.348;2023-04-28T05:48:56;97337.16;;;9.57;100.00
70304;BME280;57712;48.752;11.348;2023-04-28T05:51:23;97343.38;;;9.58;100.00
70304;BME280;57712;48.752;11.348;2023-04-28T05:53:50;97345.59;;;9.66;100.00
70304;BME280;57712;48.752;11.348;2023-04-28T05:56:16;97332.41;;;9.61;100.00
70304;BME280;57712;48.752;11.348;2023-04-28T05:58:43;97334.06;;;9.55;100.00
70304;BME280;57712;48.752;11.348;2023-04-28T06:01:10;97347.19;;;9.64;100.00
70304;BME280;57712;48.752;11.348;2023-04-28T06:03:37;97348.47;;;9.59;100.00
70304;BME280;57712;48.752;11.348;2023-04-28T06:06:04;97342.44;;;9.68;100.00
70304;BME280;57712;48.752;11.348;2023-04-28T06:08:35;97342.81;;;9.70;100.00
70304;BME280;57712;48.752;11.348;2023-04-28T06:11:02;97346.72;;;9.69;100.00
70304;BME280;57712;48.752;11.348;2023-04-28T06:13:29;97354.16;;;9.68;100.00
70304;BME280;57712;48.752;11.348;2023-04-28T06:15:55;97347.03;;;9.74;100.00
70304;BME280;57712;48.752;11.348;2023-04-28T06:18:22;97358.06;;;9.67;100.00
70304;BME280;57712;48.752;11.348;2023-04-28T06:20:49;97343.94;;;9.72;100.00
70304;BME280;57712;48.752;11.348;2023-04-28T06:23:16;97349.25;;;9.79;100.00
70304;BME280;57712;48.752;11.348;2023-04-28T06:25:43;97366.53;;;9.76;100.00
70304;BME280;57712;48.752;11.348;2023-04-28T06:28:09;97372.00;;;9.76;100.00
70304;BME280;57712;48.752;11.348;2023-04-28T06:30:38;97374.25;;;9.81;100.00
70304;BME280;57712;48.752;11.348;2023-04-28T06:33:05;97373.50;;;9.81;100.00
70304;BME280;57712;48.752;11.348;2023-04-28T06:35:32;97376.94;;;9.85;100.00
70304;BME280;57712;48.752;11.348;2023-04-28T06:38:04;97379.59;;;9.89;100.00
70304;BME280;57712;48.752;11.348;2023-04-28T06:40:31;97378.81;;;9.88;100.00
70304;BME280;57712;48.752;11.348;2023-04-28T06:42:58;97383.19;;;9.86;100.00
70304;BME280;57712;48.752;11.348;2023-04-28T06:45:25;97397.44;;;9.97;100.00
70304;BME280;57712;48.752;11.348;2023-04-28T06:47:53;97399.84;;;9.95;100.00
70304;BME280;57712;48.752;11.348;2023-04-28T06:50:22;97406.16;;;9.92;100.00
70304;BME280;57712;48.752;11.348;2023-04-28T06:52:48;97404.78;;;9.80;100.00
70304;BME280;57712;48.752;11.348;2023-04-28T06:55:16;97406.19;;;9.88;100.00
70304;BME280;57712;48.752;11.348;2023-04-28T06:57:43;97393.75;;;9.83;100.00
70304;BME280;57712;48.752;11.348;2023-04-28T07:00:10;97396.94;;;9.82;100.00
70304;BME280;57712;48.752;11.348;2023-04-28T07:02:37;97388.19;;;9.91;100.00
70304;BME280;57712;48.752;11.348;2023-04-28T07:05:04;97398.47;;;9.83;100.00
70304;BME280;57712;48.752;11.348;2023-04-28T07:07:31;97402.56;;;9.71;100.00
70304;BME280;57712;48.752;11.348;2023-04-28T07:09:58;97405.31;;;9.71;100.00
70304;BME280;57712;48.752;11.348;2023-04-28T07:12:26;97399.84;;;9.71;100.00
70304;BME280;57712;48.752;11.348;2023-04-28T07:14:53;97400.19;;;9.73;100.00
70304;BME280;57712;48.752;11.348;2023-04-28T07:17:21;97397.72;;;9.79;100.00
70304;BME280;57712;48.752;11.348;2023-04-28T07:19:48;97401.25;;;9.79;100.00
70304;BME280;57712;48.752;11.348;2023-04-28T07:22:16;97394.41;;;9.68;100.00
70304;BME280;57712;48.752;11.348;2023-04-28T07:24:43;97392.44;;;9.68;100.00
70304;BME280;57712;48.752;11.348;2023-04-28T07:27:10;97387.69;;;9.72;100.00
70304;BME280;57712;48.752;11.348;2023-04-28T07:29:36;97384.47;;;9.77;100.00
70304;BME280;57712;48.752;11.348;2023-04-28T07:32:03;97400.25;;;9.70;100.00
70304;BME280;57712;48.752;11.348;2023-04-28T07:34:36;97398.50;;;9.79;100.00
70304;BME280;57712;48.752;11.348;2023-04-28T07:37:04;97402.59;;;9.68;100.00
70304;BME280;57712;48.752;11.348;2023-04-28T07:39:33;97397.97;;;9.65;100.00
70304;BME280;57712;48.752;11.348;2023-04-28T07:42:01;97402.31;;;9.62;100.00
70304;BME280;57712;48.752;11.348;2023-04-28T07:44:29;97398.41;;;9.63;100.00
70304;BME280;57712;48.752;11.348;2023-04-28T07:46:58;97407.88;;;9.55;100.00
70304;BME280;57712;48.752;11.348;2023-04-28T07:49:27;97406.69;;;9.56;100.00
70304;BME280;57712;48.752;11.348;2023-04-28T07:51:54;97408.53;;;9.39;100.00
70304;BME280;57712;48.752;11.348;2023-04-28T07:54:22;97401.66;;;9.54;100.00
70304;BME280;57712;48.752;11.348;2023-04-28T07:56:49;97398.84;;;9.58;100.00
70304;BME280;57712;48.752;11.348;2023-04-28T07:59:15;97396.59;;;9.53;100.00
70304;BME280;57712;48.752;11.348;2023-04-28T08:01:42;97391.03;;;9.60;100.00
70304;BME280;57712;48.752;11.348;2023-04-28T08:04:09;97389.94;;;9.77;100.00
70304;BME280;57712;48.752;11.348;2023-04-28T08:06:37;97393.28;;;9.65;100.00
70304;BME280;57712;48.752;11.348;2023-04-28T08:09:05;97399.34;;;9.76;100.00
70304;BME280;57712;48.752;11.348;2023-04-28T08:11:33;97390.63;;;9.85;100.00
70304;BME280;57712;48.752;11.348;2023-04-28T08:14:00;97395.91;;;9.96;100.00
70304;BME280;57712;48.752;11.348;2023-04-28T08:16:29;97380.19;;;10.00;100.00
70304;BME280;57712;48.752;11.348;2023-04-28T08:18:57;97375.31;;;10.11;100.00
70304;BME280;57712;48.752;11.348;2023-04-28T08:21:25;97383.00;;;9.96;100.00
70304;BME280;57712;48.752;11.348;2023-04-28T08:23:52;97385.34;;;10.18;100.00
70304;BME280;57712;48.752;11.348;2023-04-28T08:26:19;97378.94;;;10.28;100.00
70304;BME280;57712;48.752;11.348;2023-04-28T08:28:45;97379.66;;;10.32;100.00
70304;BME280;57712;48.752;11.348;2023-04-28T08:31:12;97387.31;;;10.40;100.00
70304;BME280;57712;48.752;11.348;2023-04-28T08:33:38;97379.25;;;10.33;100.00
70304;BME280;57712;48.752;11.348;2023-04-28T08:36:10;97371.28;;;10.39;100.00
70304;BME280;57712;48.752;11.348;2023-04-28T08:38:37;97382.25;;;10.39;100.00
70304;BME280;57712;48.752;11.348;2023-04-28T08:41:04;97377.91;;;10.18;100.00
70304;BME280;57712;48.752;11.348;2023-04-28T08:43:33;97368.06;;;10.24;100.00
70304;BME280;57712;48.752;11.348;2023-04-28T08:46:05;97385.75;;;10.39;100.00
70304;BME280;57712;48.752;11.348;2023-04-28T08:48:42;97378.63;;;10.46;100.00
70304;BME280;57712;48.752;11.348;2023-04-28T08:51:32;97378.47;;;10.53;100.00
70304;BME280;57712;48.752;11.348;2023-04-28T08:54:02;97378.63;;;10.46;100.00
70304;BME280;57712;48.752;11.348;2023-04-28T08:56:35;97373.06;;;10.49;100.00
70304;BME280;57712;48.752;11.348;2023-04-28T08:59:03;97373.81;;;10.50;100.00
70304;BME280;57712;48.752;11.348;2023-04-28T09:01:30;97373.81;;;10.50;100.00
70304;BME280;57712;48.752;11.348;2023-04-28T09:04:01;97364.28;;;10.38;100.00
70304;BME280;57712;48.752;11.348;2023-04-28T09:06:39;97365.06;;;10.38;100.00
70304;BME280;57712;48.752;11.348;2023-04-28T09:11:53;97363.22;;;10.52;100.00
70304;BME280;57712;48.752;11.348;2023-04-28T09:14:24;97365.59;;;10.50;100.00
70304;BME280;57712;48.752;11.348;2023-04-28T09:16:51;97363.16;;;10.75;100.00
70304;BME280;57712;48.752;11.348;2023-04-28T09:19:19;97368.56;;;10.59;100.00
70304;BME280;57712;48.752;11.348;2023-04-28T09:21:47;97366.72;;;10.72;100.00
70304;BME280;57712;48.752;11.348;2023-04-28T09:24:47;97367.78;;;10.78;100.00
70304;BME280;57712;48.752;11.348;2023-04-28T09:27:14;97366.69;;;10.92;100.00
70304;BME280;57712;48.752;11.348;2023-04-28T09:29:51;97358.94;;;10.70;100.00
70304;BME280;57712;48.752;11.348;2023-04-28T09:32:19;97351.78;;;10.77;100.00
70304;BME280;57712;48.752;11.348;2023-04-28T09:34:49;97346.91;;;10.84;100.00
70304;BME280;57712;48.752;11.348;2023-04-28T09:37:24;97348.19;;;10.80;100.00
70304;BME280;57712;48.752;11.348;2023-04-28T09:39:53;97356.88;;;10.94;100.00
70304;BME280;57712;48.752;11.348;2023-04-28T09:42:30;97347.66;;;11.05;100.00
70304;BME280;57712;48.752;11.348;2023-04-28T09:45:03;97354.63;;;10.89;100.00
70304;BME280;57712;48.752;11.348;2023-04-28T09:47:30;97357.81;;;11.04;100.00
70304;BME280;57712;48.752;11.348;2023-04-28T09:50:03;97355.59;;;10.99;100.00
70304;BME280;57712;48.752;11.348;2023-04-28T09:52:32;97353.28;;;10.97;100.00
70304;BME280;57712;48.752;11.348;2023-04-28T09:55:01;97360.44;;;10.91;100.00
70304;BME280;57712;48.752;11.348;2023-04-28T09:57:33;97356.38;;;10.99;100.00
70304;BME280;57712;48.752;11.348;2023-04-28T10:00:01;97358.75;;;10.97;100.00
70304;BME280;57712;48.752;11.348;2023-04-28T10:02:33;97348.69;;;11.11;100.00
70304;BME280;57712;48.752;11.348;2023-04-28T10:05:09;97371.28;;;10.98;100.00
70304;BME280;57712;48.752;11.348;2023-04-28T10:07:37;97369.06;;;11.10;100.00
70304;BME280;57712;48.752;11.348;2023-04-28T10:10:06;97365.31;;;11.20;100.00
70304;BME280;57712;48.752;11.348;2023-04-28T10:12:34;97366.31;;;11.10;100.00
70304;BME280;57712;48.752;11.348;2023-04-28T10:15:05;97366.38;;;11.26;100.00
70304;BME280;57712;48.752;11.348;2023-04-28T10:17:33;97363.63;;;11.26;100.00
70304;BME280;57712;48.752;11.348;2023-04-28T10:20:01;97360.03;;;11.29;100.00
70304;BME280;57712;48.752;11.348;2023-04-28T10:25:30;97351.97;;;11.38;100.00
70304;BME280;57712;48.752;11.348;2023-04-28T10:27:58;97347.50;;;11.44;100.00
70304;BME280;57712;48.752;11.348;2023-04-28T10:30:26;97343.22;;;11.43;100.00
70304;BME280;57712;48.752;11.348;2023-04-28T10:38:13;97335.00;;;11.92;100.00
70304;BME280;57712;48.752;11.348;2023-04-28T10:40:40;97335.09;;;12.18;100.00
70304;BME280;57712;48.752;11.348;2023-04-28T10:43:51;97316.94;;;12.07;100.00
70304;BME280;57712;48.752;11.348;2023-04-28T10:56:11;97307.94;;;12.07;100.00
70304;BME280;57712;48.752;11.348;2023-04-28T10:58:39;97319.69;;;12.36;100.00
70304;BME280;57712;48.752;11.348;2023-04-28T11:08:48;97298.47;;;12.37;100.00
70304;BME280;57712;48.752;11.348;2023-04-28T11:11:21;97303.19;;;12.24;100.00
70304;BME280;57712;48.752;11.348;2023-04-28T11:13:48;97310.59;;;12.10;100.00
70304;BME280;57712;48.752;11.348;2023-04-28T11:16:20;97303.00;;;12.31;100.00
70304;BME280;57712;48.752;11.348;2023-04-28T11:18:55;97288.97;;;12.54;100.00
70304;BME280;57712;48.752;11.348;2023-04-28T11:21:23;97300.16;;;12.47;100.00
70304;BME280;57712;48.752;11.348;2023-04-28T11:23:50;97294.00;;;12.43;100.00
70304;BME280;57712;48.752;11.348;2023-04-28T11:26:18;97297.84;;;12.46;100.00
70304;BME280;57712;48.752;11.348;2023-04-28T11:28:53;97293.25;;;12.42;100.00
70304;BME280;57712;48.752;11.348;2023-04-28T11:31:21;97296.88;;;12.52;100.00
70304;BME280;57712;48.752;11.348;2023-04-28T11:34:11;97297.03;;;12.87;100.00
70304;BME280;57712;48.752;11.348;2023-04-28T11:36:40;97301.78;;;12.99;100.00
70304;BME280;57712;48.752;11.348;2023-04-28T11:39:08;97291.22;;;13.10;100.00
70304;BME280;57712;48.752;11.348;2023-04-28T11:41:37;97284.84;;;13.13;100.00
70304;BME280;57712;48.752;11.348;2023-04-28T11:44:18;97277.44;;;13.10;100.00
70304;BME280;57712;48.752;11.348;2023-04-28T11:46:51;97280.66;;;13.21;100.00
70304;BME280;57712;48.752;11.348;2023-04-28T11:49:26;97283.09;;;13.19;100.00
70304;BME280;57712;48.752;11.348;2023-04-28T11:51:56;97280.00;;;13.17;100.00
70304;BME280;57712;48.752;11.348;2023-04-28T11:54:27;97281.97;;;13.55;100.00
70304;BME280;57712;48.752;11.348;2023-04-28T11:56:56;97287.28;;;14.06;100.00
70304;BME280;57712;48.752;11.348;2023-04-28T11:59:41;97277.19;;;13.68;100.00
70304;BME280;57712;48.752;11.348;2023-04-28T12:02:08;97262.75;;;13.64;100.00
70304;BME280;57712;48.752;11.348;2023-04-28T12:04:37;97258.19;;;13.83;100.00
70304;BME280;57712;48.752;11.348;2023-04-28T12:07:07;97259.72;;;14.06;100.00
70304;BME280;57712;48.752;11.348;2023-04-28T12:09:37;97265.13;;;13.88;100.00
70304;BME280;57712;48.752;11.348;2023-04-28T12:12:06;97260.88;;;13.96;100.00
70304;BME280;57712;48.752;11.348;2023-04-28T12:14:53;97266.00;;;13.84;100.00
70304;BME280;57712;48.752;11.348;2023-04-28T12:17:30;97255.38;;;13.96;100.00
70304;BME280;57712;48.752;11.348;2023-04-28T12:19:59;97255.38;;;13.96;100.00
70304;BME280;57712;48.752;11.348;2023-04-28T12:22:26;97253.84;;;13.95;100.00
70304;BME280;57712;48.752;11.348;2023-04-28T12:25:07;97259.13;;;14.46;100.00
70304;BME280;57712;48.752;11.348;2023-04-28T12:27:37;97243.47;;;14.42;100.00
70304;BME280;57712;48.752;11.348;2023-04-28T12:30:24;97257.72;;;14.19;100.00
70304;BME280;57712;48.752;11.348;2023-04-28T12:32:51;97257.19;;;14.33;100.00
70304;BME280;57712;48.752;11.348;2023-04-28T12:35:20;97253.16;;;14.25;100.00
70304;BME280;57712;48.752;11.348;2023-04-28T12:37:47;97259.53;;;14.66;100.00
70304;BME280;57712;48.752;11.348;2023-04-28T12:40:14;97252.03;;;14.66;100.00
70304;BME280;57712;48.752;11.348;2023-04-28T12:42:40;97250.00;;;14.58;100.00
70304;BME280;57712;48.752;11.348;2023-04-28T12:45:07;97240.50;;;14.37;100.00
70304;BME280;57712;48.752;11.348;2023-04-28T12:47:35;97240.78;;;14.30;100.00
70304;BME280;57712;48.752;11.348;2023-04-28T12:50:04;97243.66;;;14.26;100.00
70304;BME280;57712;48.752;11.348;2023-04-28T12:52:30;97242.97;;;14.13;100.00
70304;BME280;57712;48.752;11.348;2023-04-28T12:54:59;97244.50;;;14.14;100.00
70304;BME280;57712;48.752;11.348;2023-04-28T12:57:25;97252.19;;;14.19;100.00
70304;BME280;57712;48.752;11.348;2023-04-28T12:59:52;97265.75;;;14.35;100.00
70304;BME280;57712;48.752;11.348;2023-04-28T13:02:19;97265.00;;;14.13;100.00
70304;BME280;57712;48.752;11.348;2023-04-28T13:04:46;97273.56;;;14.15;100.00
70304;BME280;57712;48.752;11.348;2023-04-28T13:07:14;97267.94;;;13.97;100.00
70304;BME280;57712;48.752;11.348;2023-04-28T13:09:41;97271.78;;;13.99;100.00
70304;BME280;57712;48.752;11.348;2023-04-28T13:12:09;97278.06;;;14.00;100.00
70304;BME280;57712;48.752;11.348;2023-04-28T13:14:37;97284.59;;;13.93;100.00
70304;BME280;57712;48.752;11.348;2023-04-28T13:17:03;97271.75;;;13.77;100.00
70304;BME280;57712;48.752;11.348;2023-04-28T13:19:30;97274.84;;;13.79;100.00